Portada
METAR-TAF:

METAR-TAF

Aeroports :

Bizerta, Tunísia

latitud: 37-15N, longitud: 009-48E, altitud: 5 m

Observació

L'informe es va fer fa 15 minuts, a les 11:00 UTC
Vent 9 kt del Est
Temperatura 26°C
Humitat 37%
Pressió 1012 hPa
Visibilitat 10 km o més
Escasses núvols a una alçada de 2000 ft

METAR: DTTB 031100Z 10009KT 9999 FEW020 26/10 Q1012

Hora: 12:15 (11:15 UTC)

Pronòstic

L'informe es va fer fa 2 hores i 15 minuts, a les 09:00 UTC
Pronòstic vàlid del 03 a les 10 UTC al 03 a les 19 UTC
Vent 5 kt del Est/Sud-Est
Visibilitat 10 km o més
Núvols disperses a una alçada de 2000 ft

TAF: DTTB 030900Z 0310/0319 12005KT 9999 SCT020

Observacions i pronòstics meteorològics de més de 4000 aeroports (METAR i TAF).

Les estacions disponibles són els punts grocs i vermells al mapa.

Posi el ratolí al punt desitjat per veure el nom de l'estació.

Feu clic per veure les observacions i els pronòstics meteorològics.

Per canviar el mapa: feu clic els botons verds amb una creu de color negre per apropar; al botó verd amb un guió per allunyar la imatge; o en les fletxes verdes per a mapes adjacents.


METAR-TAF: